createdAt,value
2022-09-12T00:03:00.780Z,13.4
2022-09-12T00:08:41.017Z,13.3
2022-09-12T00:14:20.024Z,13.3
2022-09-12T00:19:57.607Z,13.2
2022-09-12T00:25:35.068Z,13.1
2022-09-12T00:31:11.907Z,13
2022-09-12T00:36:34.089Z,12.9
2022-09-12T00:42:12.231Z,12.9
2022-09-12T00:47:48.665Z,12.8
2022-09-12T00:53:26.414Z,12.7
2022-09-12T00:59:03.990Z,12.6
2022-09-12T01:04:26.020Z,12.6
2022-09-12T01:10:03.496Z,12.4
2022-09-12T01:15:40.693Z,12.4
2022-09-12T01:21:18.331Z,12.3
2022-09-12T01:26:55.941Z,12.3
2022-09-12T01:32:32.878Z,12.2
2022-09-12T01:38:10.186Z,12.1
2022-09-12T01:43:47.146Z,12
2022-09-12T01:49:24.838Z,11.9
2022-09-12T01:54:46.914Z,11.9
2022-09-12T02:00:29.290Z,11.8
2022-09-12T02:06:06.666Z,11.8
2022-09-12T02:11:44.053Z,11.6
2022-09-12T02:17:21.659Z,11.6
2022-09-12T02:23:20.628Z,11.5
2022-09-12T02:28:57.585Z,11.4
2022-09-12T02:34:34.941Z,11.4
2022-09-12T02:40:12.976Z,11.3
2022-09-12T02:45:50.082Z,11.2
2022-09-12T02:51:27.861Z,11.1
2022-09-12T02:56:49.172Z,11.1
2022-09-12T03:02:27.172Z,11
2022-09-12T03:08:04.536Z,10.9
2022-09-12T03:13:41.650Z,10.9
2022-09-12T03:24:40.336Z,10.8
2022-09-12T03:30:17.112Z,10.8
2022-09-12T03:35:58.726Z,10.7
2022-09-12T03:41:35.786Z,10.6
2022-09-12T03:47:13.018Z,10.6
2022-09-12T03:52:50.081Z,10.6
2022-09-12T03:58:27.199Z,10.6
2022-09-12T04:04:05.451Z,10.6
2022-09-12T04:09:42.840Z,10.6
2022-09-12T04:14:50.136Z,10.6
2022-09-12T04:20:27.991Z,10.6
2022-09-12T04:26:06.110Z,10.6
2022-09-12T04:31:28.655Z,10.6
2022-09-12T04:37:05.690Z,10.6
2022-09-12T04:42:42.721Z,10.7
2022-09-12T04:48:20.106Z,10.8
2022-09-12T04:54:00.386Z,10.9
2022-09-12T04:59:37.948Z,11.3
2022-09-12T05:05:14.632Z,11.8
2022-09-12T05:10:55.599Z,12.4
2022-09-12T05:17:06.230Z,13.3
2022-09-12T05:22:28.458Z,14.3
2022-09-12T05:28:06.918Z,15.5
2022-09-12T05:33:43.701Z,16.4
2022-09-12T05:39:21.035Z,18
2022-09-12T05:45:03.500Z,20.1
2022-09-12T05:50:41.264Z,22.6
2022-09-12T05:56:18.345Z,25.4
2022-09-12T06:02:01.003Z,27.9
2022-09-12T06:07:38.964Z,29.2
2022-09-12T06:13:20.372Z,37.6
2022-09-12T06:19:02.552Z,37
2022-09-12T06:24:40.102Z,35.8
2022-09-12T06:30:20.354Z,36.1
2022-09-12T06:35:59.238Z,42
2022-09-12T06:41:38.447Z,44.3
2022-09-12T06:47:19.621Z,41.8
2022-09-12T06:52:57.915Z,39.8
2022-09-12T06:58:36.047Z,42.8
2022-09-12T07:03:59.243Z,44.9
2022-09-12T07:09:36.143Z,46.3
2022-09-12T07:15:13.158Z,46.2
2022-09-12T07:20:51.524Z,46.4
2022-09-12T07:26:29.688Z,46.3
2022-09-12T07:32:31.940Z,46.4
2022-09-12T07:43:31.069Z,47.4
2022-09-12T07:49:08.721Z,47.9
2022-09-12T07:54:46.995Z,48.9
2022-09-12T08:00:48.059Z,49.4
2022-09-12T08:06:31.266Z,49.6
2022-09-12T08:12:12.595Z,50.7
2022-09-12T08:17:53.998Z,51.4
2022-09-12T08:28:59.130Z,53.1
2022-09-12T08:34:36.825Z,53.4
2022-09-12T08:40:14.480Z,54.1
2022-09-12T08:45:41.155Z,54.7
2022-09-12T08:51:19.332Z,55.1
2022-09-12T08:56:57.243Z,55.4
2022-09-12T09:02:35.950Z,55.4
2022-09-12T09:08:13.844Z,55.4
2022-09-12T09:13:51.101Z,56.2
2022-09-12T09:19:29.341Z,56.6
2022-09-12T09:24:56.067Z,57.1
2022-09-12T09:30:54.892Z,57.6
2022-09-12T09:36:32.324Z,58.1
2022-09-12T09:47:20.558Z,58.8
2022-09-12T09:53:00.008Z,58.1
2022-09-12T09:58:07.226Z,58.7
2022-09-12T10:03:18.602Z,54.2
2022-09-12T10:08:40.974Z,46.5
2022-09-12T10:14:04.429Z,44.9
2022-09-12T10:19:42.562Z,44.9
2022-09-12T10:25:25.621Z,46.4
2022-09-12T10:31:07.727Z,48.6
2022-09-12T10:36:44.706Z,48.9
2022-09-12T10:42:08.251Z,50.7
2022-09-12T10:47:45.845Z,51.9
2022-09-12T10:53:34.441Z,52.5
2022-09-12T10:59:14.735Z,53.8
2022-09-12T11:04:54.262Z,54.7
2022-09-12T11:10:16.429Z,55.4
2022-09-12T11:15:58.797Z,56.1
2022-09-12T11:21:36.800Z,56.9
2022-09-12T11:27:03.501Z,57.5
2022-09-12T11:32:29.564Z,57.9
2022-09-12T11:37:59.243Z,58.3
2022-09-12T11:43:37.482Z,58.6
2022-09-12T11:49:15.981Z,58.9
2022-09-12T11:54:55.583Z,59.1
2022-09-12T12:00:33.269Z,59.3
2022-09-12T12:06:16.038Z,59.5
2022-09-12T12:11:43.245Z,59.6
2022-09-12T12:17:10.478Z,59.8
2022-09-12T12:22:57.501Z,59.2
2022-09-12T12:28:38.481Z,58.4
2022-09-12T12:34:16.724Z,59
2022-09-12T12:39:59.275Z,59.3
2022-09-12T12:45:41.627Z,59.4
2022-09-12T12:51:20.145Z,59.1
2022-09-12T12:57:02.004Z,56.6
2022-09-12T13:02:46.361Z,56.3
2022-09-12T13:08:23.832Z,56.6
2022-09-12T13:13:45.817Z,56.7
2022-09-12T13:19:23.697Z,56.4
2022-09-12T13:25:29.761Z,55.8
2022-09-12T13:31:07.027Z,55.7
2022-09-12T13:36:48.656Z,54.8
2022-09-12T13:42:26.614Z,52.9
2022-09-12T13:48:04.317Z,51.7
2022-09-12T13:53:41.996Z,49.1
2022-09-12T13:59:19.381Z,47.4
2022-09-12T14:04:57.816Z,52.4
2022-09-12T14:10:36.333Z,50.1
2022-09-12T14:16:14.412Z,47.3
2022-09-12T14:21:54.534Z,46.3
2022-09-12T14:27:36.304Z,48.1
2022-09-12T14:33:13.953Z,45
2022-09-12T14:38:52.303Z,42.4
2022-09-12T14:44:14.483Z,39.9
2022-09-12T14:49:51.738Z,37.9
2022-09-12T14:55:33.254Z,36.1
2022-09-12T15:01:10.585Z,34.5
2022-09-12T15:06:49.822Z,33.1
2022-09-12T15:12:27.790Z,31.9
2022-09-12T15:18:06.676Z,30.8
2022-09-12T15:23:29.515Z,29.8
2022-09-12T15:29:08.196Z,28.8
2022-09-12T15:34:46.272Z,27.9
2022-09-12T15:40:28.137Z,27.1
2022-09-12T15:46:10.561Z,26.3
2022-09-12T15:51:53.323Z,25.6
2022-09-12T15:57:15.697Z,25.1
2022-09-12T16:03:15.859Z,24.5
2022-09-12T16:08:39.759Z,24.1
2022-09-12T16:14:20.910Z,23.7
2022-09-12T16:19:42.628Z,23.3
2022-09-12T16:25:22.235Z,22.9
2022-09-12T16:31:00.761Z,22.5
2022-09-12T16:36:39.058Z,22.1
2022-09-12T16:42:17.312Z,21.7
2022-09-12T16:47:56.209Z,21.3
2022-09-12T16:53:39.068Z,21
2022-09-12T16:59:20.041Z,20.6
2022-09-12T17:05:01.789Z,20.3
2022-09-12T17:16:27.980Z,19.7
2022-09-12T17:21:55.476Z,19.3
2022-09-12T17:27:24.382Z,18.9
2022-09-12T17:32:46.691Z,18.6
2022-09-12T17:44:08.510Z,17.9
2022-09-12T17:49:49.524Z,17.6
2022-09-12T17:55:34.926Z,17.3
2022-09-12T18:00:59.952Z,17.1
2022-09-12T18:06:38.618Z,16.8
2022-09-12T18:12:16.230Z,16.5
2022-09-12T18:17:56.674Z,16.3
2022-09-12T18:23:19.613Z,15.9
2022-09-12T18:29:03.239Z,15.8
2022-09-12T18:34:52.123Z,15.5
2022-09-12T18:40:17.709Z,15.3
2022-09-12T18:45:55.930Z,15.1
2022-09-12T18:51:34.326Z,15
2022-09-12T18:57:14.202Z,14.9
2022-09-12T19:02:52.334Z,14.8
2022-09-12T19:08:30.261Z,14.7
2022-09-12T19:14:12.155Z,14.6
2022-09-12T19:19:38.777Z,14.6
2022-09-12T19:25:02.946Z,14.6
2022-09-12T19:30:25.641Z,14.5
2022-09-12T19:35:49.912Z,14.5
2022-09-12T19:41:33.982Z,14.5
2022-09-12T19:47:12.153Z,14.5
2022-09-12T19:52:55.369Z,14.5
2022-09-12T19:58:33.570Z,14.5
2022-09-12T20:04:16.335Z,14.5
2022-09-12T20:09:57.224Z,14.5
2022-09-12T20:15:35.472Z,14.4
2022-09-12T20:21:13.086Z,14.4
2022-09-12T20:26:53.565Z,14.4
2022-09-12T20:32:32.353Z,14.3
2022-09-12T20:37:54.799Z,14.3
2022-09-12T20:43:33.175Z,14.1
2022-09-12T20:49:14.494Z,14
2022-09-12T20:54:51.956Z,13.9
2022-09-12T21:00:29.111Z,13.8
2022-09-12T21:06:08.212Z,13.6
2022-09-12T21:11:45.883Z,13.4
2022-09-12T21:17:24.530Z,13.3
2022-09-12T21:23:04.136Z,13.1
2022-09-12T21:28:48.462Z,12.9
2022-09-12T21:34:15.715Z,12.8
2022-09-12T21:39:53.515Z,12.6
2022-09-12T21:45:31.927Z,12.4
2022-09-12T21:51:10.291Z,12.3
2022-09-12T21:56:47.997Z,12.2
2022-09-12T22:02:10.135Z,12.1
2022-09-12T22:07:33.848Z,11.9
2022-09-12T22:13:11.719Z,11.8
2022-09-12T22:19:17.822Z,11.7
2022-09-12T22:24:54.807Z,11.6
2022-09-12T22:30:32.515Z,11.6
2022-09-12T22:36:10.172Z,11.4
2022-09-12T22:41:51.535Z,11.4
2022-09-12T22:47:29.077Z,11.3
2022-09-12T22:53:11.581Z,11.3
2022-09-12T22:58:48.840Z,11.2
2022-09-12T23:04:11.399Z,11.1
2022-09-12T23:09:35.493Z,11.1
2022-09-12T23:14:56.545Z,11
2022-09-12T23:20:02.919Z,10.9
2022-09-12T23:25:24.485Z,10.9
2022-09-12T23:30:45.802Z,10.9
2022-09-12T23:36:24.753Z,10.8
2022-09-12T23:41:32.100Z,10.8
2022-09-12T23:47:08.959Z,10.8
2022-09-12T23:52:30.856Z,10.7
2022-09-12T23:58:10.237Z,10.7
